Orbital elements of IRIDIUM 33 DEB
| Launched | 13 September 1997 |
| Flight ended | – |
| Launch site | Tyuratam Missile and Space Center, Kazakhstan (Also known as Baikonur Cosmodrome) |
| Owner | United States |
| NORAD ID | 35622 |
| Date fetched |
Epoch osculation |
Inc. [°] |
Ecc. | RA asc node [hr] |
Arg Peri. [°] |
Mean anom [°] |
Mean motion [rev/day] |
Abs. mag |
| Date fetched |
Epoch osculation |
Inc. [°] |
Ecc. | RA asc node [hr] |
Arg Peri. [°] |
Mean anom [°] |
Mean motion [rev/day] |
Abs. mag |
| 2026 May 04 17:57 | 2026 Apr 30 15:56:41 | 86.1923 | 0.00096 | 12.9491 | 124.6978 | 27.9728 | 15.19016 | – |
| 2026 May 03 17:57 | 2026 Apr 30 15:56:41 | 86.1923 | 0.00096 | 12.9491 | 124.6978 | 27.9728 | 15.19016 | – |
| 2026 May 02 17:57 | 2026 Apr 30 15:56:41 | 86.1923 | 0.00096 | 12.9491 | 124.6978 | 27.9728 | 15.19016 | – |
| 2026 May 01 17:56 | 2026 Apr 30 15:56:41 | 86.1923 | 0.00096 | 12.9491 | 124.6978 | 27.9728 | 15.19016 | – |
| 2026 Apr 30 17:56 | 2026 Apr 30 15:56:41 | 86.1923 | 0.00096 | 12.9491 | 124.6978 | 27.9728 | 15.19016 | – |
| 2026 Apr 29 17:57 | 2026 Apr 23 12:32:31 | 86.1917 | 0.00099 | 13.1892 | 145.1200 | 27.9728 | 15.19016 | – |
| 2026 Apr 28 17:56 | 2026 Apr 23 12:32:31 | 86.1917 | 0.00099 | 13.1892 | 145.1200 | 27.9728 | 15.19016 | – |
| 2026 Apr 27 17:58 | 2026 Apr 23 12:32:31 | 86.1917 | 0.00099 | 13.1892 | 145.1200 | 27.9728 | 15.19016 | – |
| 2026 Apr 26 17:58 | 2026 Apr 23 12:32:31 | 86.1917 | 0.00099 | 13.1892 | 145.1200 | 27.9728 | 15.19016 | – |
| 2026 Apr 25 17:58 | 2026 Apr 23 12:32:31 | 86.1917 | 0.00099 | 13.1892 | 145.1200 | 27.9728 | 15.19016 | – |
| 2026 Apr 24 17:59 | 2026 Apr 23 12:32:31 | 86.1917 | 0.00099 | 13.1892 | 145.1200 | 27.9728 | 15.19016 | – |
| 2026 Apr 23 17:57 | 2026 Apr 16 06:42:38 | 86.1936 | 0.00096 | 13.4326 | 168.7758 | 27.9728 | 15.19016 | – |
| 2026 Apr 22 17:57 | 2026 Apr 16 06:42:38 | 86.1936 | 0.00096 | 13.4326 | 168.7758 | 27.9728 | 15.19016 | – |
| 2026 Apr 21 17:57 | 2026 Apr 16 06:42:38 | 86.1936 | 0.00096 | 13.4326 | 168.7758 | 27.9728 | 15.19016 | – |
| 2026 Apr 20 17:57 | 2026 Apr 16 06:42:38 | 86.1936 | 0.00096 | 13.4326 | 168.7758 | 27.9728 | 15.19016 | – |
| 2026 Apr 19 17:58 | 2026 Apr 16 06:42:38 | 86.1936 | 0.00096 | 13.4326 | 168.7758 | 27.9728 | 15.19016 | – |
| 2026 Apr 18 17:56 | 2026 Apr 10 06:34:03 | 86.1929 | 0.00089 | 13.6342 | 188.4715 | 27.9728 | 15.19016 | – |
| 2026 Apr 16 17:57 | 2026 Apr 10 06:34:03 | 86.1929 | 0.00089 | 13.6342 | 188.4715 | 27.9728 | 15.19016 | – |
| 2026 Apr 14 17:57 | 2026 Apr 10 06:34:03 | 86.1929 | 0.00089 | 13.6342 | 188.4715 | 27.9728 | 15.19016 | – |
| 2026 Apr 13 17:57 | 2026 Apr 10 06:34:03 | 86.1929 | 0.00089 | 13.6342 | 188.4715 | 27.9728 | 15.19016 | – |
| 2026 Apr 12 17:57 | 2026 Apr 07 01:39:06 | 86.1929 | 0.00089 | 13.7417 | 198.1265 | 27.9728 | 15.19016 | – |
| 2026 Apr 11 17:57 | 2026 Apr 07 01:39:06 | 86.1929 | 0.00089 | 13.7417 | 198.1265 | 27.9728 | 15.19016 | – |
| 2026 Apr 10 17:58 | 2026 Apr 07 01:39:06 | 86.1929 | 0.00089 | 13.7417 | 198.1265 | 27.9728 | 15.19016 | – |
| 2026 Apr 09 18:01 | 2026 Apr 07 01:39:06 | 86.1929 | 0.00089 | 13.7417 | 198.1265 | 27.9728 | 15.19016 | – |
| 2026 Apr 08 17:57 | 2026 Apr 07 01:39:06 | 86.1929 | 0.00089 | 13.7417 | 198.1265 | 27.9728 | 15.19016 | – |
| 2026 Apr 07 17:57 | 2026 Apr 02 06:58:38 | 86.1932 | 0.00085 | 13.9019 | 212.7968 | 27.9728 | 15.19016 | – |